createdAt,value
2023-04-30T00:01:28.924Z,99284.79
2023-04-30T00:03:56.368Z,99277.59
2023-04-30T00:06:24.423Z,99278.92
2023-04-30T00:08:52.699Z,99278.30
2023-04-30T00:11:19.818Z,99280.52
2023-04-30T00:13:47.006Z,99281.27
2023-04-30T00:16:14.261Z,99285.35
2023-04-30T00:18:41.431Z,99286.73
2023-04-30T00:21:08.715Z,99285.51
2023-04-30T00:23:36.484Z,99283.61
2023-04-30T00:26:04.251Z,99286.52
2023-04-30T00:28:31.431Z,99284.48
2023-04-30T00:30:58.508Z,99287.65
2023-04-30T00:33:25.658Z,99286.17
2023-04-30T00:35:52.742Z,99291.92
2023-04-30T00:38:19.789Z,99287.93
2023-04-30T00:40:47.422Z,99277.23
2023-04-30T00:43:14.935Z,99275.42
2023-04-30T00:45:42.224Z,99280.06
2023-04-30T00:48:09.911Z,99282.17
2023-04-30T00:50:38.325Z,99278.36
2023-04-30T00:53:06.594Z,99264.00
2023-04-30T00:55:33.759Z,99251.52
2023-04-30T00:58:02.022Z,99242.51
2023-04-30T01:00:30.164Z,99245.27
2023-04-30T01:02:57.700Z,99245.60
2023-04-30T01:05:26.150Z,99247.52
2023-04-30T01:07:56.389Z,99243.98
2023-04-30T01:10:30.703Z,99231.33
2023-04-30T01:13:18.232Z,99229.48
2023-04-30T01:16:03.288Z,99225.61
2023-04-30T01:18:37.900Z,99224.57
2023-04-30T01:21:06.178Z,99227.82
2023-04-30T01:23:36.039Z,99220.08
2023-04-30T01:26:40.466Z,99216.24
2023-04-30T01:29:08.822Z,99213.58
2023-04-30T01:31:36.307Z,99210.33
2023-04-30T01:34:03.597Z,99210.87
2023-04-30T01:36:39.063Z,99205.47
2023-04-30T01:39:12.388Z,99201.98
2023-04-30T01:41:56.870Z,99202.66
2023-04-30T01:44:41.278Z,99214.36
2023-04-30T01:47:19.202Z,99215.61
2023-04-30T01:50:22.361Z,99216.23
2023-04-30T01:52:57.432Z,99222.33
2023-04-30T01:55:41.664Z,99225.80
2023-04-30T01:58:15.468Z,99225.09
2023-04-30T02:00:42.936Z,99230.86
2023-04-30T02:03:12.577Z,99231.99
2023-04-30T02:05:40.139Z,99224.98
2023-04-30T02:08:07.578Z,99223.80
2023-04-30T02:10:34.635Z,99224.80
2023-04-30T02:13:03.046Z,99223.11
2023-04-30T02:15:30.594Z,99219.02
2023-04-30T02:17:57.793Z,99217.62
2023-04-30T02:20:25.493Z,99214.30
2023-04-30T02:22:53.118Z,99205.73
2023-04-30T02:25:20.237Z,99204.23
2023-04-30T02:27:47.736Z,99201.41
2023-04-30T02:30:14.819Z,99203.64
2023-04-30T02:32:42.025Z,99200.61
2023-04-30T02:35:10.167Z,99199.80
2023-04-30T02:37:37.298Z,99195.64
2023-04-30T02:40:05.319Z,99198.66
2023-04-30T02:42:32.343Z,99199.27
2023-04-30T02:44:59.557Z,99199.52
2023-04-30T02:47:26.683Z,99202.45
2023-04-30T02:49:54.563Z,99197.30
2023-04-30T02:52:23.030Z,99197.50
2023-04-30T02:54:50.223Z,99186.52
2023-04-30T02:57:17.328Z,99187.48
2023-04-30T02:59:46.408Z,99187.95
2023-04-30T03:02:14.470Z,99184.98
2023-04-30T03:04:41.705Z,99186.67
2023-04-30T03:07:08.919Z,99187.69
2023-04-30T03:09:36.915Z,99189.66
2023-04-30T03:12:04.293Z,99191.90
2023-04-30T03:14:31.556Z,99195.34
2023-04-30T03:16:59.144Z,99205.13
2023-04-30T03:19:26.193Z,99206.15
2023-04-30T03:21:53.357Z,99211.33
2023-04-30T03:24:20.813Z,99213.86
2023-04-30T03:26:48.087Z,99216.20
2023-04-30T03:29:15.233Z,99218.38
2023-04-30T03:31:43.003Z,99216.69
2023-04-30T03:34:10.499Z,99219.57
2023-04-30T03:36:37.851Z,99221.44
2023-04-30T03:39:05.473Z,99219.34
2023-04-30T03:41:32.554Z,99223.20
2023-04-30T03:44:00.271Z,99214.38
2023-04-30T03:46:27.507Z,99208.95
2023-04-30T03:48:54.869Z,99214.67
2023-04-30T03:51:22.094Z,99221.98
2023-04-30T03:53:49.160Z,99225.35
2023-04-30T03:56:16.384Z,99223.77
2023-04-30T03:58:43.541Z,99228.30
2023-04-30T04:01:10.833Z,99229.98
2023-04-30T04:03:38.486Z,99233.05
2023-04-30T04:06:06.253Z,99231.23
2023-04-30T04:08:34.235Z,99232.17
2023-04-30T04:11:01.353Z,99236.41
2023-04-30T04:13:28.424Z,99234.34
2023-04-30T04:15:55.716Z,99231.35
2023-04-30T04:18:23.419Z,99236.16
2023-04-30T04:20:51.189Z,99235.63
2023-04-30T04:23:18.639Z,99236.16
2023-04-30T04:25:49.779Z,99231.63
2023-04-30T04:28:17.387Z,99232.90
2023-04-30T04:30:44.809Z,99231.37
2023-04-30T04:33:11.988Z,99232.05
2023-04-30T04:35:39.168Z,99236.36
2023-04-30T04:38:07.722Z,99240.98
2023-04-30T04:40:35.714Z,99244.56
2023-04-30T04:43:03.278Z,99246.02
2023-04-30T04:45:31.760Z,99252.71
2023-04-30T04:47:59.035Z,99255.39
2023-04-30T04:50:27.623Z,99252.27
2023-04-30T04:52:54.740Z,99251.83
2023-04-30T04:55:21.795Z,99256.74
2023-04-30T04:57:49.074Z,99257.63
2023-04-30T05:00:18.200Z,99256.20
2023-04-30T05:02:45.465Z,99251.80
2023-04-30T05:05:12.642Z,99253.46
2023-04-30T05:07:40.302Z,99252.26
2023-04-30T05:10:09.193Z,99255.92
2023-04-30T05:12:36.340Z,99259.98
2023-04-30T05:15:04.819Z,99259.52
2023-04-30T05:17:31.922Z,99263.00
2023-04-30T05:19:59.197Z,99263.67
2023-04-30T05:22:26.318Z,99264.29
2023-04-30T05:24:53.458Z,99266.30
2023-04-30T05:27:21.347Z,99265.70
2023-04-30T05:29:48.436Z,99266.48
2023-04-30T05:32:16.448Z,99265.20
2023-04-30T05:34:43.581Z,99268.37
2023-04-30T05:37:10.758Z,99273.02
2023-04-30T05:39:37.842Z,99277.75
2023-04-30T05:42:05.488Z,99280.56
2023-04-30T05:44:32.706Z,99279.55
2023-04-30T05:46:59.795Z,99277.98
2023-04-30T05:49:27.898Z,99274.20
2023-04-30T05:51:55.051Z,99264.36
2023-04-30T05:54:22.171Z,99263.58
2023-04-30T05:56:49.536Z,99262.86
2023-04-30T05:59:16.799Z,99265.55
2023-04-30T06:01:44.610Z,99263.05
2023-04-30T06:04:12.153Z,99275.23
2023-04-30T06:06:39.286Z,99283.27
2023-04-30T06:09:06.624Z,99290.10
2023-04-30T06:11:34.077Z,99291.71
2023-04-30T06:14:01.345Z,99292.33
2023-04-30T06:16:29.533Z,99292.89
2023-04-30T06:18:56.627Z,99295.64
2023-04-30T06:21:26.349Z,99295.31
2023-04-30T06:23:53.725Z,99301.35
2023-04-30T06:26:21.061Z,99304.09
2023-04-30T06:28:48.577Z,99305.73
2023-04-30T06:31:15.858Z,99300.77
2023-04-30T06:33:42.949Z,99298.99
2023-04-30T06:36:10.097Z,99296.56
2023-04-30T06:38:37.202Z,99299.24
2023-04-30T06:41:04.281Z,99307.29
2023-04-30T06:43:31.371Z,99309.42
2023-04-30T06:45:58.455Z,99306.34
2023-04-30T06:48:26.277Z,99307.05
2023-04-30T06:50:53.865Z,99308.44
2023-04-30T06:53:21.655Z,99308.74
2023-04-30T06:55:49.597Z,99309.68
2023-04-30T06:58:16.759Z,99305.17
2023-04-30T07:00:43.918Z,99305.79
2023-04-30T07:03:11.153Z,99304.41
2023-04-30T07:05:38.480Z,99297.80
2023-04-30T07:08:07.226Z,99301.14
2023-04-30T07:10:34.691Z,99301.13
2023-04-30T07:13:01.751Z,99300.95
2023-04-30T07:15:28.825Z,99305.59
2023-04-30T07:17:58.092Z,99302.59
2023-04-30T07:20:25.388Z,99300.53
2023-04-30T07:22:52.727Z,99302.64
2023-04-30T07:25:19.996Z,99300.70
2023-04-30T07:27:47.232Z,99301.70
2023-04-30T07:30:14.302Z,99299.52
2023-04-30T07:32:41.844Z,99299.14
2023-04-30T07:35:09.466Z,99294.64
2023-04-30T07:37:39.090Z,99299.45
2023-04-30T07:40:15.369Z,99301.23
2023-04-30T07:42:46.594Z,99304.81
2023-04-30T07:45:14.321Z,99307.29
2023-04-30T07:47:41.484Z,99309.69
2023-04-30T07:50:09.134Z,99313.58
2023-04-30T07:52:36.688Z,99310.86
2023-04-30T07:55:03.932Z,99312.19
2023-04-30T07:57:31.425Z,99319.19
2023-04-30T07:59:58.669Z,99321.92
2023-04-30T08:02:26.422Z,99324.82
2023-04-30T08:04:53.739Z,99327.11
2023-04-30T08:07:22.643Z,99327.61
2023-04-30T08:09:49.839Z,99334.18
2023-04-30T08:12:17.928Z,99333.39
2023-04-30T08:14:44.968Z,99332.09
2023-04-30T08:17:12.208Z,99334.16
2023-04-30T08:19:39.272Z,99336.27
2023-04-30T08:22:06.452Z,99338.30
2023-04-30T08:24:33.590Z,99337.48
2023-04-30T08:27:01.201Z,99335.17
2023-04-30T08:29:28.892Z,99333.02
2023-04-30T08:31:56.041Z,99337.70
2023-04-30T08:34:23.288Z,99341.38
2023-04-30T08:36:50.322Z,99350.05
2023-04-30T08:39:17.358Z,99346.87
2023-04-30T08:41:47.266Z,99346.44
2023-04-30T08:44:14.508Z,99350.66
2023-04-30T08:46:42.376Z,99348.18
2023-04-30T08:49:09.506Z,99348.54
2023-04-30T08:51:37.434Z,99350.60
2023-04-30T08:54:04.607Z,99350.99
2023-04-30T08:56:33.711Z,99350.02
2023-04-30T08:59:00.836Z,99350.33
2023-04-30T09:01:30.218Z,99351.44
2023-04-30T09:03:58.033Z,99351.96
2023-04-30T09:06:25.194Z,99349.29
2023-04-30T09:08:53.434Z,99352.55
2023-04-30T09:11:28.704Z,99354.83
2023-04-30T09:13:58.168Z,99355.83
2023-04-30T09:16:27.970Z,99361.15
2023-04-30T09:18:56.828Z,99363.84
2023-04-30T09:21:35.217Z,99368.98
2023-04-30T09:24:04.707Z,99367.51
2023-04-30T09:26:38.950Z,99374.15
2023-04-30T09:29:10.108Z,99374.22
2023-04-30T09:31:38.692Z,99375.12
2023-04-30T09:34:06.853Z,99368.02
2023-04-30T09:36:34.637Z,99368.52
2023-04-30T09:39:15.844Z,99366.99
2023-04-30T09:41:44.027Z,99370.89
2023-04-30T09:44:28.588Z,99370.23
2023-04-30T09:47:00.686Z,99363.47
2023-04-30T09:49:28.257Z,99361.10
2023-04-30T09:52:01.182Z,99358.65
2023-04-30T09:54:31.031Z,99366.79
2023-04-30T09:57:02.034Z,99370.49
2023-04-30T09:59:32.000Z,99371.88
2023-04-30T10:02:02.354Z,99371.35
2023-04-30T10:04:33.557Z,99371.04
2023-04-30T10:07:04.505Z,99374.95
2023-04-30T10:09:40.110Z,99382.63
2023-04-30T10:12:11.597Z,99384.34
2023-04-30T10:14:39.543Z,99390.64
2023-04-30T10:17:15.316Z,99394.00
2023-04-30T10:19:49.678Z,99397.61
2023-04-30T10:22:17.532Z,99408.02
2023-04-30T10:24:45.637Z,99410.77
2023-04-30T10:27:13.540Z,99409.61
2023-04-30T10:29:40.680Z,99415.09
2023-04-30T10:32:08.437Z,99421.95
2023-04-30T10:34:46.999Z,99429.92
2023-04-30T10:37:54.817Z,99437.31
2023-04-30T10:40:21.904Z,99433.98
2023-04-30T10:42:50.208Z,99438.91
2023-04-30T10:45:17.584Z,99435.77
2023-04-30T10:47:48.266Z,99442.95
2023-04-30T10:50:15.444Z,99446.41
2023-04-30T10:52:44.460Z,99441.08
2023-04-30T10:55:11.856Z,99440.45
2023-04-30T10:57:44.126Z,99448.06
2023-04-30T11:00:14.593Z,99453.48
2023-04-30T11:02:47.823Z,99456.73
2023-04-30T11:05:19.848Z,99457.64
2023-04-30T11:07:59.535Z,99454.08
2023-04-30T11:10:28.702Z,99457.02
2023-04-30T11:12:56.336Z,99459.38
2023-04-30T11:15:31.940Z,99463.52
2023-04-30T11:17:59.879Z,99465.24
2023-04-30T11:20:28.130Z,99465.61
2023-04-30T11:23:22.198Z,99462.85
2023-04-30T11:25:55.230Z,99464.46
2023-04-30T11:28:27.074Z,99467.58
2023-04-30T11:30:57.622Z,99465.98
2023-04-30T11:33:33.000Z,99462.27
2023-04-30T11:36:01.532Z,99466.14
2023-04-30T11:38:36.131Z,99464.61
2023-04-30T11:41:04.764Z,99462.70
2023-04-30T11:43:33.741Z,99460.72
2023-04-30T11:46:01.890Z,99451.09
2023-04-30T11:48:37.579Z,99447.80
2023-04-30T11:51:07.460Z,99445.53
2023-04-30T11:53:34.574Z,99443.98
2023-04-30T11:56:04.917Z,99445.39
2023-04-30T11:58:39.322Z,99439.19
2023-04-30T12:01:11.059Z,99434.70
2023-04-30T12:03:46.526Z,99434.10
2023-04-30T12:06:25.759Z,99435.35
2023-04-30T12:08:55.267Z,99435.81
2023-04-30T12:11:26.987Z,99440.04
2023-04-30T12:13:55.729Z,99446.35
2023-04-30T12:16:26.255Z,99450.02
2023-04-30T12:18:53.466Z,99451.64
2023-04-30T12:21:23.192Z,99453.19
2023-04-30T12:23:50.851Z,99458.29
2023-04-30T12:26:18.030Z,99457.99
2023-04-30T12:28:49.391Z,99457.80
2023-04-30T12:31:20.359Z,99459.22
2023-04-30T12:33:55.232Z,99457.46
2023-04-30T12:36:22.416Z,99451.13
2023-04-30T12:38:49.479Z,99453.12
2023-04-30T12:41:17.802Z,99442.61
2023-04-30T12:43:44.894Z,99432.30
2023-04-30T12:46:12.561Z,99433.45
2023-04-30T12:48:45.931Z,99432.79
2023-04-30T12:51:13.187Z,99439.17
2023-04-30T12:53:47.254Z,99446.17
2023-04-30T12:56:16.916Z,99443.09
2023-04-30T12:58:51.372Z,99446.73
2023-04-30T13:01:22.067Z,99450.13
2023-04-30T13:03:49.556Z,99445.55
2023-04-30T13:06:17.017Z,99435.56
2023-04-30T13:11:17.081Z,99427.73
2023-04-30T13:13:44.236Z,99425.64
2023-04-30T13:16:11.319Z,99420.42
2023-04-30T13:18:38.498Z,99415.63
2023-04-30T13:21:05.661Z,99418.61
2023-04-30T13:23:41.249Z,99420.66
2023-04-30T13:26:16.738Z,99425.13
2023-04-30T13:28:43.781Z,99426.69
2023-04-30T13:31:11.099Z,99421.09
2023-04-30T13:33:38.171Z,99424.77
2023-04-30T13:36:05.398Z,99425.45
2023-04-30T13:38:32.454Z,99436.45
2023-04-30T13:40:59.500Z,99435.25
2023-04-30T13:43:26.724Z,99434.16
2023-04-30T13:45:53.839Z,99433.51
2023-04-30T13:48:20.955Z,99430.59
2023-04-30T13:50:47.974Z,99432.43
2023-04-30T13:53:15.428Z,99435.46
2023-04-30T13:55:42.490Z,99433.83
2023-04-30T13:58:09.691Z,99437.05
2023-04-30T14:00:37.044Z,99434.52
2023-04-30T14:03:07.210Z,99438.54
2023-04-30T14:05:35.913Z,99438.08
2023-04-30T14:08:03.479Z,99437.29
2023-04-30T14:10:30.537Z,99438.20
2023-04-30T14:12:57.527Z,99444.13
2023-04-30T14:15:25.002Z,99445.99
2023-04-30T14:17:53.208Z,99448.91
2023-04-30T14:20:20.463Z,99447.64
2023-04-30T14:22:47.738Z,99449.33
2023-04-30T14:25:14.841Z,99447.45
2023-04-30T14:27:42.098Z,99453.34
2023-04-30T14:30:10.378Z,99453.45
2023-04-30T14:32:37.934Z,99452.31
2023-04-30T14:35:05.629Z,99451.40
2023-04-30T14:37:32.887Z,99451.54
2023-04-30T14:40:02.156Z,99454.51
2023-04-30T14:42:29.233Z,99456.08
2023-04-30T14:44:56.284Z,99456.95
2023-04-30T14:47:27.507Z,99457.77
2023-04-30T14:49:55.078Z,99460.66
2023-04-30T14:52:22.603Z,99458.96
2023-04-30T14:54:49.850Z,99456.46
2023-04-30T14:57:18.721Z,99455.13
2023-04-30T14:59:45.877Z,99455.42
2023-04-30T15:02:13.135Z,99455.31
2023-04-30T15:04:45.665Z,99455.55
2023-04-30T15:07:12.886Z,99460.14
2023-04-30T15:09:39.978Z,99463.19
2023-04-30T15:12:07.219Z,99466.89
2023-04-30T15:14:34.269Z,99468.02
2023-04-30T15:17:01.403Z,99463.80
2023-04-30T15:19:29.682Z,99465.58
2023-04-30T15:21:56.708Z,99470.00
2023-04-30T15:24:24.123Z,99473.48
2023-04-30T15:26:54.520Z,99478.94
2023-04-30T15:29:21.608Z,99486.69
2023-04-30T15:31:52.077Z,99492.45
2023-04-30T15:34:21.519Z,99496.77
2023-04-30T15:36:49.960Z,99501.89
2023-04-30T15:39:18.006Z,99504.64
2023-04-30T15:41:45.216Z,99504.63
2023-04-30T15:44:12.269Z,99511.36
2023-04-30T15:46:39.443Z,99511.88
2023-04-30T15:49:06.591Z,99513.65
2023-04-30T15:51:34.490Z,99516.56
2023-04-30T15:54:01.580Z,99513.38
2023-04-30T15:56:29.028Z,99512.77
2023-04-30T15:58:56.163Z,99509.39
2023-04-30T16:01:23.811Z,99510.47
2023-04-30T16:03:51.273Z,99512.66
2023-04-30T16:06:19.450Z,99509.59
2023-04-30T16:08:46.984Z,99509.23
2023-04-30T16:11:14.916Z,99511.83
2023-04-30T16:13:42.173Z,99511.88
2023-04-30T16:16:09.330Z,99516.27
2023-04-30T16:18:36.645Z,99520.67
2023-04-30T16:21:05.732Z,99519.39
2023-04-30T16:23:32.805Z,99516.75
2023-04-30T16:25:59.960Z,99517.44
2023-04-30T16:28:28.703Z,99515.62
2023-04-30T16:33:25.364Z,99528.02
2023-04-30T16:35:52.671Z,99533.40
2023-04-30T16:38:20.959Z,99531.48
2023-04-30T16:40:48.833Z,99531.36
2023-04-30T16:43:16.220Z,99538.23
2023-04-30T16:45:43.373Z,99539.12
2023-04-30T16:48:10.912Z,99545.36
2023-04-30T16:50:38.092Z,99547.97
2023-04-30T16:53:05.236Z,99551.52
2023-04-30T16:55:32.869Z,99549.81
2023-04-30T16:58:00.437Z,99553.91
2023-04-30T17:00:28.035Z,99555.10
2023-04-30T17:02:55.503Z,99557.16
2023-04-30T17:05:22.928Z,99555.97
2023-04-30T17:07:50.318Z,99558.09
2023-04-30T17:10:19.669Z,99554.60
2023-04-30T17:12:49.524Z,99552.58
2023-04-30T17:15:18.675Z,99547.21
2023-04-30T17:17:46.212Z,99541.76
2023-04-30T17:20:13.516Z,99539.67
2023-04-30T17:22:41.006Z,99534.05
2023-04-30T17:25:09.459Z,99529.58
2023-04-30T17:27:36.518Z,99521.98
2023-04-30T17:30:07.524Z,99514.63
2023-04-30T17:32:34.692Z,99516.45
2023-04-30T17:35:03.007Z,99515.81
2023-04-30T17:37:30.279Z,99517.92
2023-04-30T17:39:58.174Z,99521.91
2023-04-30T17:42:25.605Z,99522.19
2023-04-30T17:44:52.911Z,99524.52
2023-04-30T17:47:20.117Z,99522.23
2023-04-30T17:49:48.166Z,99521.29
2023-04-30T17:52:15.550Z,99520.27
2023-04-30T17:54:43.069Z,99520.17
2023-04-30T17:57:10.231Z,99522.99
2023-04-30T17:59:39.593Z,99519.56
2023-04-30T18:02:07.785Z,99518.64
2023-04-30T18:04:35.222Z,99526.73
2023-04-30T18:07:02.383Z,99530.63
2023-04-30T18:09:30.698Z,99538.34
2023-04-30T18:11:59.504Z,99541.30
2023-04-30T18:14:27.448Z,99543.30
2023-04-30T18:16:54.891Z,99542.77
2023-04-30T18:19:22.214Z,99545.12
2023-04-30T18:21:53.015Z,99548.60
2023-04-30T18:24:21.192Z,99554.71
2023-04-30T18:26:48.501Z,99555.29
2023-04-30T18:29:17.621Z,99554.77
2023-04-30T18:31:44.988Z,99554.11
2023-04-30T18:34:13.354Z,99555.63
2023-04-30T18:36:43.197Z,99559.48
2023-04-30T18:39:12.797Z,99570.51
2023-04-30T18:41:39.857Z,99573.23
2023-04-30T18:44:10.012Z,99582.35
2023-04-30T18:46:37.262Z,99584.29
2023-04-30T18:49:05.706Z,99587.64
2023-04-30T18:51:32.999Z,99587.59
2023-04-30T18:54:00.327Z,99587.54
2023-04-30T18:56:27.498Z,99585.38
2023-04-30T18:58:55.102Z,99585.26
2023-04-30T19:01:24.641Z,99582.42
2023-04-30T19:03:51.742Z,99583.23
2023-04-30T19:06:19.253Z,99578.40
2023-04-30T19:08:47.592Z,99577.23
2023-04-30T19:11:14.709Z,99577.76
2023-04-30T19:13:41.804Z,99577.51
2023-04-30T19:16:08.929Z,99574.86
2023-04-30T19:18:36.791Z,99577.27
2023-04-30T19:21:05.569Z,99578.78
2023-04-30T19:23:32.653Z,99581.81
2023-04-30T19:26:00.357Z,99586.55
2023-04-30T19:28:27.968Z,99587.98
2023-04-30T19:30:55.523Z,99583.42
2023-04-30T19:33:23.784Z,99582.93
2023-04-30T19:35:53.600Z,99579.80
2023-04-30T19:38:21.682Z,99576.76
2023-04-30T19:40:53.347Z,99571.29
2023-04-30T19:43:24.619Z,99569.40
2023-04-30T19:45:54.611Z,99565.96
2023-04-30T19:48:23.280Z,99571.27
2023-04-30T19:50:53.523Z,99571.92
2023-04-30T19:53:21.736Z,99573.26
2023-04-30T19:55:49.141Z,99569.25
2023-04-30T19:58:16.511Z,99566.25
2023-04-30T20:00:45.245Z,99567.48
2023-04-30T20:03:14.642Z,99568.17
2023-04-30T20:05:42.965Z,99572.81
2023-04-30T20:08:10.579Z,99571.92
2023-04-30T20:10:39.346Z,99570.17
2023-04-30T20:13:07.423Z,99566.19
2023-04-30T20:15:34.574Z,99563.83
2023-04-30T20:18:02.027Z,99561.58
2023-04-30T20:20:29.537Z,99559.17
2023-04-30T20:22:57.093Z,99559.88
2023-04-30T20:25:26.095Z,99558.73
2023-04-30T20:27:53.166Z,99549.14
2023-04-30T20:30:21.128Z,99549.74
2023-04-30T20:32:48.383Z,99552.73
2023-04-30T20:35:15.701Z,99556.69
2023-04-30T20:37:43.027Z,99557.39
2023-04-30T20:40:10.623Z,99557.80
2023-04-30T20:42:38.919Z,99564.10
2023-04-30T20:45:06.805Z,99565.84
2023-04-30T20:47:33.897Z,99564.34
2023-04-30T20:50:01.793Z,99564.66
2023-04-30T20:52:28.838Z,99567.87
2023-04-30T20:54:56.633Z,99567.74
2023-04-30T20:57:23.779Z,99564.39
2023-04-30T20:59:51.344Z,99559.77
2023-04-30T21:02:18.897Z,99555.92
2023-04-30T21:04:46.400Z,99550.70
2023-04-30T21:07:13.427Z,99550.35
2023-04-30T21:09:41.128Z,99547.03
2023-04-30T21:12:08.146Z,99551.55
2023-04-30T21:14:36.005Z,99547.56
2023-04-30T21:17:03.325Z,99549.48
2023-04-30T21:19:31.819Z,99554.55
2023-04-30T21:21:58.893Z,99557.45
2023-04-30T21:24:25.952Z,99563.31
2023-04-30T21:26:54.488Z,99565.01
2023-04-30T21:29:22.044Z,99570.01
2023-04-30T21:31:49.135Z,99568.22
2023-04-30T21:34:16.197Z,99572.45
2023-04-30T21:36:43.278Z,99577.41
2023-04-30T21:39:10.546Z,99574.58
2023-04-30T21:41:37.688Z,99572.85
2023-04-30T21:44:04.888Z,99570.43
2023-04-30T21:46:32.313Z,99563.99
2023-04-30T21:48:59.594Z,99565.02
2023-04-30T21:51:29.089Z,99562.17
2023-04-30T21:53:56.342Z,99556.21
2023-04-30T21:56:23.514Z,99552.89
2023-04-30T21:58:50.850Z,99548.86
2023-04-30T22:01:18.612Z,99553.03
2023-04-30T22:03:46.138Z,99547.54
2023-04-30T22:06:13.325Z,99546.73
2023-04-30T22:08:40.453Z,99542.59
2023-04-30T22:11:07.595Z,99540.45
2023-04-30T22:13:34.686Z,99544.70
2023-04-30T22:16:02.270Z,99539.98
2023-04-30T22:18:29.605Z,99541.84
2023-04-30T22:20:56.817Z,99541.96
2023-04-30T22:23:24.209Z,99543.48
2023-04-30T22:25:51.378Z,99544.48
2023-04-30T22:28:19.478Z,99547.02
2023-04-30T22:30:46.968Z,99542.33
2023-04-30T22:33:14.225Z,99544.02
2023-04-30T22:35:41.457Z,99541.48
2023-04-30T22:38:08.701Z,99540.65
2023-04-30T22:40:39.801Z,99539.40
2023-04-30T22:43:06.962Z,99538.08
2023-04-30T22:45:37.506Z,99539.69
2023-04-30T22:48:05.038Z,99536.35
2023-04-30T22:50:32.320Z,99537.99
2023-04-30T22:53:00.092Z,99545.64
2023-04-30T22:55:27.936Z,99546.71
2023-04-30T22:57:55.055Z,99554.40
2023-04-30T23:00:24.154Z,99560.17
2023-04-30T23:02:51.460Z,99558.88
2023-04-30T23:05:19.067Z,99558.80
2023-04-30T23:07:49.756Z,99555.70
2023-04-30T23:10:17.402Z,99553.02
2023-04-30T23:12:44.482Z,99553.36
2023-04-30T23:15:12.476Z,99556.31
2023-04-30T23:17:39.728Z,99550.30
2023-04-30T23:20:08.041Z,99548.21
2023-04-30T23:22:35.056Z,99549.02
2023-04-30T23:25:02.064Z,99545.85
2023-04-30T23:27:30.072Z,99548.27
2023-04-30T23:29:57.637Z,99545.05
2023-04-30T23:32:25.273Z,99550.90
2023-04-30T23:34:52.431Z,99552.73
2023-04-30T23:37:19.463Z,99551.78
2023-04-30T23:39:46.493Z,99553.94
2023-04-30T23:42:13.731Z,99551.82
2023-04-30T23:44:40.920Z,99550.16
2023-04-30T23:47:08.030Z,99550.22
2023-04-30T23:49:35.042Z,99544.88
2023-04-30T23:52:02.283Z,99550.63
2023-04-30T23:54:30.288Z,99546.73
2023-04-30T23:56:57.522Z,99543.92
2023-04-30T23:59:25.816Z,99542.61
